createdAt,value
2023-04-22T00:01:31.640Z,10.77
2023-04-22T00:03:59.669Z,10.60
2023-04-22T00:06:27.755Z,8.80
2023-04-22T00:08:55.670Z,8.60
2023-04-22T00:11:24.824Z,7.57
2023-04-22T00:13:52.753Z,7.97
2023-04-22T00:16:21.536Z,7.50
2023-04-22T00:18:49.994Z,7.20
2023-04-22T00:21:17.926Z,9.67
2023-04-22T00:23:47.096Z,7.53
2023-04-22T00:26:15.188Z,7.30
2023-04-22T00:28:44.503Z,7.50
2023-04-22T00:31:13.020Z,7.83
2023-04-22T00:33:40.986Z,6.73
2023-04-22T00:36:09.143Z,6.27
2023-04-22T00:38:36.978Z,6.00
2023-04-22T00:41:05.404Z,6.30
2023-04-22T00:43:33.255Z,7.10
2023-04-22T00:46:02.976Z,6.43
2023-04-22T00:48:31.343Z,6.20
2023-04-22T00:50:59.281Z,6.07
2023-04-22T00:53:27.195Z,5.67
2023-04-22T00:55:55.763Z,5.53
2023-04-22T00:58:25.856Z,5.97
2023-04-22T01:00:53.768Z,5.67
2023-04-22T01:03:24.343Z,6.37
2023-04-22T01:05:52.450Z,7.03
2023-04-22T01:08:21.832Z,5.47
2023-04-22T01:10:49.791Z,6.00
2023-04-22T01:13:17.601Z,5.77
2023-04-22T01:15:45.483Z,5.60
2023-04-22T01:18:13.560Z,5.43
2023-04-22T01:20:42.988Z,5.13
2023-04-22T01:23:18.475Z,5.23
2023-04-22T01:25:47.106Z,5.80
2023-04-22T01:28:15.905Z,5.00
2023-04-22T01:30:44.625Z,4.20
2023-04-22T01:33:13.298Z,4.03
2023-04-22T01:35:41.381Z,3.63
2023-04-22T01:38:11.219Z,3.40
2023-04-22T01:40:41.027Z,2.37
2023-04-22T01:43:08.860Z,2.13
2023-04-22T01:45:36.874Z,1.70
2023-04-22T01:48:06.863Z,1.53
2023-04-22T01:50:34.973Z,1.30
2023-04-22T01:53:02.966Z,1.43
2023-04-22T01:55:35.937Z,1.53
2023-04-22T01:58:05.384Z,1.20
2023-04-22T02:00:33.409Z,1.50
2023-04-22T02:03:01.465Z,1.63
2023-04-22T02:05:29.693Z,1.90
2023-04-22T02:07:57.493Z,2.00
2023-04-22T02:10:25.357Z,2.03
2023-04-22T02:12:53.168Z,2.00
2023-04-22T02:15:22.762Z,2.50
2023-04-22T02:17:50.729Z,2.67
2023-04-22T02:20:18.520Z,3.00
2023-04-22T02:22:46.836Z,2.60
2023-04-22T02:25:14.712Z,3.60
2023-04-22T02:27:42.623Z,6.47
2023-04-22T02:30:11.297Z,16.63
2023-04-22T02:32:40.540Z,7.93
2023-04-22T02:35:08.969Z,7.87
2023-04-22T02:37:36.777Z,4.13
2023-04-22T02:40:05.186Z,4.37
2023-04-22T02:42:32.970Z,4.67
2023-04-22T02:45:00.807Z,4.67
2023-04-22T02:47:28.915Z,4.50
2023-04-22T02:49:58.294Z,5.13
2023-04-22T02:52:26.186Z,5.87
2023-04-22T02:54:53.961Z,14.87
2023-04-22T02:57:22.227Z,70.47
2023-04-22T02:59:50.316Z,62.40
2023-04-22T03:02:18.364Z,18.10
2023-04-22T03:04:46.343Z,14.20
2023-04-22T03:07:15.537Z,6.43
2023-04-22T03:09:43.359Z,6.10
2023-04-22T03:12:11.399Z,6.60
2023-04-22T03:14:39.173Z,7.23
2023-04-22T03:17:06.985Z,7.37
2023-04-22T03:19:34.798Z,6.40
2023-04-22T03:22:02.608Z,6.03
2023-04-22T03:24:31.727Z,6.80
2023-04-22T03:26:59.514Z,6.17
2023-04-22T03:29:27.377Z,5.83
2023-04-22T03:31:55.265Z,5.37
2023-04-22T03:34:23.197Z,6.00
2023-04-22T03:36:51.315Z,6.70
2023-04-22T03:39:19.345Z,6.77
2023-04-22T03:41:48.648Z,6.00
2023-04-22T03:44:16.466Z,6.03
2023-04-22T03:46:44.580Z,5.83
2023-04-22T03:49:13.579Z,5.90
2023-04-22T03:51:41.415Z,6.83
2023-04-22T03:54:09.270Z,6.23
2023-04-22T03:56:37.483Z,6.17
2023-04-22T03:59:06.671Z,6.43
2023-04-22T04:01:34.488Z,6.27
2023-04-22T04:04:02.584Z,5.90
2023-04-22T04:06:31.812Z,5.60
2023-04-22T04:08:59.690Z,5.87
2023-04-22T04:11:27.525Z,5.50
2023-04-22T04:13:55.336Z,5.33
2023-04-22T04:16:24.620Z,5.50
2023-04-22T04:18:52.822Z,6.40
2023-04-22T04:21:20.687Z,5.97
2023-04-22T04:23:48.934Z,6.30
2023-04-22T04:26:18.021Z,6.40
2023-04-22T04:28:45.899Z,6.47
2023-04-22T04:31:14.413Z,6.10
2023-04-22T04:33:43.580Z,6.30
2023-04-22T04:36:11.508Z,5.87
2023-04-22T04:38:39.349Z,5.33
2023-04-22T04:41:08.539Z,5.27
2023-04-22T04:43:36.557Z,5.83
2023-04-22T04:46:04.471Z,5.40
2023-04-22T04:48:36.350Z,4.97
2023-04-22T04:51:06.234Z,6.23
2023-04-22T04:53:34.036Z,6.17
2023-04-22T04:56:01.906Z,5.80
2023-04-22T04:58:29.733Z,6.37
2023-04-22T05:00:57.530Z,6.50
2023-04-22T05:03:25.658Z,5.77
2023-04-22T05:05:53.646Z,6.57
2023-04-22T05:08:22.882Z,5.83
2023-04-22T05:10:50.794Z,6.50
2023-04-22T05:13:18.610Z,5.43
2023-04-22T05:15:46.643Z,6.40
2023-04-22T05:18:14.731Z,5.47
2023-04-22T05:20:42.545Z,6.97
2023-04-22T05:23:10.609Z,5.57
2023-04-22T05:25:39.840Z,6.20
2023-04-22T05:28:07.718Z,6.30
2023-04-22T05:30:35.536Z,6.67
2023-04-22T05:33:03.489Z,6.17
2023-04-22T05:35:31.427Z,6.70
2023-04-22T05:37:59.225Z,6.67
2023-04-22T05:40:27.058Z,6.97
2023-04-22T05:42:56.299Z,7.03
2023-04-22T05:45:24.150Z,6.53
2023-04-22T05:47:52.089Z,5.23
2023-04-22T05:50:21.240Z,6.20
2023-04-22T05:52:50.794Z,6.33
2023-04-22T05:55:18.902Z,6.70
2023-04-22T05:57:46.711Z,6.93
2023-04-22T06:00:17.688Z,8.33
2023-04-22T06:02:45.782Z,6.97
2023-04-22T06:05:13.882Z,6.83
2023-04-22T06:07:42.220Z,7.07
2023-04-22T06:10:10.828Z,7.27
2023-04-22T06:12:38.678Z,7.10
2023-04-22T06:15:07.775Z,7.47
2023-04-22T06:17:36.932Z,7.20
2023-04-22T06:20:04.957Z,21.17
2023-04-22T06:22:32.828Z,13.13
2023-04-22T06:25:00.596Z,9.60
2023-04-22T06:27:28.448Z,13.60
2023-04-22T06:29:56.302Z,7.47
2023-04-22T06:32:24.164Z,10.00
2023-04-22T06:34:53.445Z,12.00
2023-04-22T06:37:21.232Z,13.03
2023-04-22T06:39:49.396Z,11.23
2023-04-22T06:42:17.231Z,14.77
2023-04-22T06:44:45.124Z,13.23
2023-04-22T06:47:13.602Z,12.63
2023-04-22T06:49:41.688Z,12.70
2023-04-22T06:52:11.733Z,13.30
2023-04-22T06:54:39.593Z,12.00
2023-04-22T06:57:08.153Z,10.43
2023-04-22T06:59:35.978Z,15.27
2023-04-22T07:02:04.099Z,15.00
2023-04-22T07:04:32.254Z,16.63
2023-04-22T07:07:00.570Z,18.40
2023-04-22T07:09:29.966Z,13.80
2023-04-22T07:11:58.866Z,15.70
2023-04-22T07:14:27.368Z,20.57
2023-04-22T07:16:55.557Z,14.90
2023-04-22T07:19:23.614Z,15.83
2023-04-22T07:21:52.201Z,15.87
2023-04-22T07:24:20.140Z,16.07
2023-04-22T07:26:49.847Z,14.83
2023-04-22T07:29:17.702Z,14.63
2023-04-22T07:31:45.600Z,17.57
2023-04-22T07:34:14.173Z,16.30
2023-04-22T07:36:42.200Z,15.20
2023-04-22T07:39:10.525Z,15.80
2023-04-22T07:41:38.296Z,17.17
2023-04-22T07:44:07.390Z,17.80
2023-04-22T07:46:35.538Z,15.98
2023-04-22T07:49:03.339Z,16.13
2023-04-22T07:51:31.189Z,14.80
2023-04-22T07:53:59.086Z,15.18
2023-04-22T07:56:27.014Z,14.93
2023-04-22T07:58:54.868Z,14.63
2023-04-22T08:01:24.114Z,13.30
2023-04-22T08:03:52.758Z,12.55
2023-04-22T08:06:20.955Z,11.43
2023-04-22T08:08:48.948Z,11.25
2023-04-22T08:11:16.758Z,11.30
2023-04-22T08:13:45.008Z,10.93
2023-04-22T08:16:13.627Z,11.50
2023-04-22T08:18:42.908Z,10.60
2023-04-22T08:21:10.840Z,9.98
2023-04-22T08:23:38.941Z,9.55
2023-04-22T08:26:08.242Z,11.63
2023-04-22T08:28:36.245Z,9.38
2023-04-22T08:31:04.207Z,9.65
2023-04-22T08:33:32.203Z,10.43
2023-04-22T08:36:03.609Z,9.35
2023-04-22T08:38:31.497Z,10.05
2023-04-22T08:40:59.461Z,10.55
2023-04-22T08:43:27.759Z,9.93
2023-04-22T08:45:56.639Z,9.65
2023-04-22T08:48:24.833Z,11.48
2023-04-22T08:50:53.015Z,9.68
2023-04-22T08:53:24.630Z,10.35
2023-04-22T08:55:53.317Z,9.60
2023-04-22T08:58:21.210Z,9.55
2023-04-22T09:00:50.310Z,10.57
2023-04-22T09:03:19.206Z,9.95
2023-04-22T09:05:49.507Z,10.10
2023-04-22T09:08:17.520Z,10.52
2023-04-22T09:10:46.719Z,10.65
2023-04-22T09:13:15.424Z,9.27
2023-04-22T09:15:43.560Z,8.65
2023-04-22T09:18:11.610Z,8.70
2023-04-22T09:20:43.600Z,8.60
2023-04-22T09:23:13.698Z,7.75
2023-04-22T09:25:42.484Z,7.72
2023-04-22T09:28:18.376Z,7.65
2023-04-22T09:30:48.145Z,11.05
2023-04-22T09:33:17.399Z,10.20
2023-04-22T09:35:45.458Z,11.45
2023-04-22T09:38:14.121Z,8.02
2023-04-22T09:40:44.715Z,8.68
2023-04-22T09:43:18.713Z,8.88
2023-04-22T09:45:46.938Z,7.45
2023-04-22T09:48:18.210Z,6.50
2023-04-22T09:50:49.158Z,6.82
2023-04-22T09:53:19.280Z,8.77
2023-04-22T09:55:48.848Z,6.15
2023-04-22T09:58:19.738Z,7.00
2023-04-22T10:00:49.992Z,8.05
2023-04-22T10:03:18.999Z,7.10
2023-04-22T10:05:47.796Z,9.85
2023-04-22T10:08:17.263Z,7.60
2023-04-22T10:10:45.966Z,7.93
2023-04-22T10:13:13.848Z,7.80
2023-04-22T10:15:46.885Z,8.25
2023-04-22T10:18:19.693Z,9.52
2023-04-22T10:20:48.683Z,8.52
2023-04-22T10:23:19.756Z,8.07
2023-04-22T10:25:51.386Z,7.75
2023-04-22T10:28:19.488Z,7.28
2023-04-22T10:30:49.598Z,8.98
2023-04-22T10:33:39.830Z,8.43
2023-04-22T10:36:09.206Z,7.03
2023-04-22T10:38:37.449Z,8.52
2023-04-22T10:41:05.455Z,8.45
2023-04-22T10:43:43.691Z,9.18
2023-04-22T10:46:45.569Z,7.78
2023-04-22T10:49:20.491Z,8.05
2023-04-22T10:51:49.936Z,8.18
2023-04-22T10:54:51.065Z,9.70
2023-04-22T10:57:22.709Z,10.00
2023-04-22T10:59:54.074Z,10.00
2023-04-22T11:02:23.456Z,12.30
2023-04-22T11:04:54.317Z,9.45
2023-04-22T11:07:32.038Z,11.38
2023-04-22T11:10:03.100Z,10.57
2023-04-22T11:12:43.939Z,10.32
2023-04-22T11:15:13.908Z,14.05
2023-04-22T11:17:45.161Z,11.23
2023-04-22T11:20:17.395Z,11.02
2023-04-22T11:22:46.998Z,11.45
2023-04-22T11:25:15.989Z,11.27
2023-04-22T11:27:44.820Z,10.88
2023-04-22T11:30:15.733Z,12.23
2023-04-22T11:32:46.611Z,11.43
2023-04-22T11:35:19.504Z,10.80
2023-04-22T11:37:49.817Z,9.93
2023-04-22T11:42:50.742Z,8.95
2023-04-22T11:45:18.912Z,9.30
2023-04-22T11:47:47.347Z,8.35
2023-04-22T11:50:18.471Z,8.70
2023-04-22T11:52:51.360Z,15.48
2023-04-22T11:55:22.400Z,12.10
2023-04-22T11:57:55.944Z,22.10
2023-04-22T12:00:29.264Z,12.75
2023-04-22T12:02:59.223Z,10.63
2023-04-22T12:05:40.166Z,10.50
2023-04-22T12:08:09.777Z,10.07
2023-04-22T12:10:42.748Z,10.18
2023-04-22T12:13:10.859Z,8.63
2023-04-22T12:15:40.382Z,9.45
2023-04-22T12:18:08.479Z,9.75
2023-04-22T12:20:39.806Z,12.95
2023-04-22T12:23:14.761Z,11.35
2023-04-22T12:25:43.895Z,13.07
2023-04-22T12:28:12.975Z,12.80
2023-04-22T12:30:40.837Z,21.42
2023-04-22T12:33:09.320Z,22.35
2023-04-22T12:35:38.599Z,20.45
2023-04-22T12:38:06.465Z,16.88
2023-04-22T12:40:34.250Z,15.13
2023-04-22T12:43:06.149Z,15.07
2023-04-22T12:45:34.139Z,11.40
2023-04-22T12:48:02.200Z,13.68
2023-04-22T12:50:30.157Z,11.23
2023-04-22T12:53:02.417Z,9.95
2023-04-22T12:55:30.990Z,9.48
2023-04-22T12:57:59.252Z,9.00
2023-04-22T13:00:27.375Z,9.02
2023-04-22T13:02:55.679Z,10.85
2023-04-22T13:05:23.751Z,9.88
2023-04-22T13:08:05.872Z,11.05
2023-04-22T13:10:36.692Z,10.38
2023-04-22T13:13:17.883Z,9.57
2023-04-22T13:15:46.969Z,10.20
2023-04-22T13:18:16.967Z,10.23
2023-04-22T13:20:45.362Z,11.23
2023-04-22T13:23:14.358Z,11.20
2023-04-22T13:25:43.763Z,12.52
2023-04-22T13:28:12.736Z,12.23
2023-04-22T13:30:40.709Z,12.85
2023-04-22T13:33:08.586Z,17.52
2023-04-22T13:35:36.876Z,17.33
2023-04-22T13:38:05.153Z,19.10
2023-04-22T13:40:33.200Z,17.23
2023-04-22T13:43:02.441Z,19.08
2023-04-22T13:45:30.355Z,14.15
2023-04-22T13:47:58.287Z,11.93
2023-04-22T13:50:26.119Z,12.77
2023-04-22T13:52:54.429Z,14.15
2023-04-22T13:55:22.536Z,12.43
2023-04-22T13:57:52.100Z,12.38
2023-04-22T14:00:21.886Z,11.65
2023-04-22T14:02:50.791Z,10.80
2023-04-22T14:05:18.776Z,142.60
2023-04-22T14:07:46.766Z,24.77
2023-04-22T14:10:16.070Z,16.60
2023-04-22T14:12:44.325Z,13.70
2023-04-22T14:15:12.848Z,12.90
2023-04-22T14:17:42.335Z,13.30
2023-04-22T14:20:11.822Z,11.15
2023-04-22T14:22:39.684Z,11.70
2023-04-22T14:25:08.868Z,12.48
2023-04-22T14:27:36.800Z,13.00
2023-04-22T14:30:06.127Z,18.88
2023-04-22T14:32:33.997Z,19.25
2023-04-22T14:35:03.296Z,13.30
2023-04-22T14:37:32.045Z,14.07
2023-04-22T14:40:00.142Z,13.02
2023-04-22T14:42:28.602Z,15.02
2023-04-22T14:44:56.499Z,12.73
2023-04-22T14:47:24.444Z,11.75
2023-04-22T14:49:52.353Z,12.52
2023-04-22T14:52:21.635Z,11.50
2023-04-22T14:54:51.840Z,11.43
2023-04-22T14:57:20.008Z,10.88
2023-04-22T14:59:47.846Z,16.83
2023-04-22T15:02:16.788Z,11.43
2023-04-22T15:04:44.982Z,10.85
2023-04-22T15:07:13.326Z,12.63
2023-04-22T15:09:43.159Z,11.45
2023-04-22T15:12:11.694Z,11.40
2023-04-22T15:14:39.672Z,11.52
2023-04-22T15:17:07.731Z,12.13
2023-04-22T15:19:35.701Z,12.63
2023-04-22T15:22:03.772Z,14.00
2023-04-22T15:24:31.937Z,13.07
2023-04-22T15:27:04.347Z,11.18
2023-04-22T15:29:39.405Z,12.43
2023-04-22T15:32:07.644Z,12.40
2023-04-22T15:34:35.794Z,11.88
2023-04-22T15:37:06.249Z,12.63
2023-04-22T15:39:34.158Z,13.98
2023-04-22T15:42:02.793Z,14.07
2023-04-22T15:44:32.015Z,14.48
2023-04-22T15:47:00.287Z,15.15
2023-04-22T15:49:28.157Z,13.80
2023-04-22T15:51:56.108Z,14.32
2023-04-22T15:54:23.948Z,13.88
2023-04-22T15:56:51.838Z,13.88
2023-04-22T15:59:19.614Z,24.27
2023-04-22T16:01:50.372Z,30.90
2023-04-22T16:04:20.085Z,20.83
2023-04-22T16:06:50.754Z,20.05
2023-04-22T16:09:19.338Z,18.85
2023-04-22T16:11:47.619Z,17.98
2023-04-22T16:14:15.689Z,16.65
2023-04-22T16:16:44.350Z,17.75
2023-04-22T16:19:13.967Z,18.60
2023-04-22T16:21:41.788Z,18.70
2023-04-22T16:24:09.644Z,17.67
2023-04-22T16:26:37.524Z,17.77
2023-04-22T16:29:05.418Z,18.48
2023-04-22T16:31:33.220Z,19.33
2023-04-22T16:34:01.138Z,17.55
2023-04-22T16:36:30.265Z,16.77
2023-04-22T16:38:58.452Z,17.45
2023-04-22T16:41:26.308Z,15.23
2023-04-22T16:43:54.238Z,18.17
2023-04-22T16:46:22.133Z,17.60
2023-04-22T16:48:50.679Z,17.50
2023-04-22T16:51:18.641Z,16.55
2023-04-22T16:53:48.852Z,17.45
2023-04-22T16:56:16.679Z,16.58
2023-04-22T16:58:45.051Z,18.67
2023-04-22T17:01:13.952Z,18.55
2023-04-22T17:03:42.106Z,20.55
2023-04-22T17:06:10.572Z,18.75
2023-04-22T17:08:38.516Z,19.27
2023-04-22T17:11:07.900Z,19.05
2023-04-22T17:13:35.846Z,22.08
2023-04-22T17:16:03.745Z,20.90
2023-04-22T17:18:31.630Z,18.80
2023-04-22T17:20:59.464Z,20.48
2023-04-22T17:23:27.682Z,18.65
2023-04-22T17:25:55.574Z,20.02
2023-04-22T17:28:24.834Z,17.52
2023-04-22T17:30:52.718Z,17.30
2023-04-22T17:33:20.689Z,18.98
2023-04-22T17:35:48.955Z,16.23
2023-04-22T17:38:16.754Z,17.95
2023-04-22T17:40:45.198Z,16.40
2023-04-22T17:43:14.128Z,14.85
2023-04-22T17:45:44.119Z,16.30
2023-04-22T17:48:12.392Z,15.75
2023-04-22T17:50:40.695Z,15.70
2023-04-22T17:53:08.873Z,18.45
2023-04-22T17:55:36.859Z,15.70
2023-04-22T17:58:05.630Z,17.23
2023-04-22T18:00:34.290Z,16.63
2023-04-22T18:03:05.115Z,16.27
2023-04-22T18:05:33.103Z,16.17
2023-04-22T18:08:02.764Z,17.92
2023-04-22T18:10:31.536Z,17.65
2023-04-22T18:12:59.448Z,21.52
2023-04-22T18:15:27.253Z,19.17
2023-04-22T18:17:55.210Z,20.13
2023-04-22T18:20:24.403Z,19.03
2023-04-22T18:22:52.681Z,19.65
2023-04-22T18:25:20.763Z,20.77
2023-04-22T18:27:50.594Z,17.88
2023-04-22T18:30:18.533Z,17.60
2023-04-22T18:32:47.178Z,20.42
2023-04-22T18:35:16.572Z,17.98
2023-04-22T18:37:46.023Z,17.52
2023-04-22T18:40:15.146Z,16.10
2023-04-22T18:42:44.558Z,16.77
2023-04-22T18:45:15.493Z,18.73
2023-04-22T18:47:45.399Z,18.00
2023-04-22T18:50:13.966Z,18.63
2023-04-22T18:52:42.856Z,19.45
2023-04-22T18:55:12.375Z,19.90
2023-04-22T18:57:41.413Z,19.23
2023-04-22T19:00:10.772Z,16.10
2023-04-22T19:02:41.557Z,18.10
2023-04-22T19:05:12.144Z,20.10
2023-04-22T19:07:41.213Z,19.30
2023-04-22T19:10:12.989Z,21.17
2023-04-22T19:12:41.643Z,19.77
2023-04-22T19:15:10.562Z,19.97
2023-04-22T19:17:38.574Z,25.17
2023-04-22T19:20:08.193Z,19.17
2023-04-22T19:22:36.266Z,22.57
2023-04-22T19:25:06.403Z,25.47
2023-04-22T19:27:35.743Z,29.33
2023-04-22T19:30:03.755Z,27.03
2023-04-22T19:32:31.769Z,34.27
2023-04-22T19:35:01.160Z,32.93
2023-04-22T19:37:31.135Z,29.63
2023-04-22T19:39:58.985Z,27.23
2023-04-22T19:42:28.358Z,27.70
2023-04-22T19:44:58.921Z,26.73
2023-04-22T19:47:27.324Z,26.87
2023-04-22T19:49:56.432Z,26.20
2023-04-22T19:52:25.719Z,27.17
2023-04-22T19:54:56.267Z,24.90
2023-04-22T19:57:24.737Z,28.80
2023-04-22T19:59:53.982Z,29.03
2023-04-22T20:02:24.126Z,30.67
2023-04-22T20:04:52.682Z,31.03
2023-04-22T20:07:20.956Z,29.07
2023-04-22T20:09:50.559Z,26.60
2023-04-22T20:12:18.880Z,28.37
2023-04-22T20:14:47.032Z,30.07
2023-04-22T20:17:15.931Z,27.87
2023-04-22T20:19:46.309Z,26.47
2023-04-22T20:22:17.312Z,29.10
2023-04-22T20:24:46.688Z,26.23
2023-04-22T20:27:19.311Z,31.97
2023-04-22T20:29:49.889Z,30.03
2023-04-22T20:32:17.853Z,26.70
2023-04-22T20:34:47.832Z,28.63
2023-04-22T20:37:18.871Z,28.00
2023-04-22T20:39:48.853Z,28.93
2023-04-22T20:42:17.037Z,30.00
2023-04-22T20:44:47.850Z,27.87
2023-04-22T20:47:16.418Z,28.17
2023-04-22T20:49:47.985Z,25.73
2023-04-22T20:52:17.596Z,28.43
2023-04-22T20:54:45.720Z,25.70
2023-04-22T20:57:13.924Z,27.57
2023-04-22T20:59:41.743Z,28.20
2023-04-22T21:02:10.813Z,30.13
2023-04-22T21:04:39.259Z,29.53
2023-04-22T21:07:12.399Z,24.83
2023-04-22T21:09:43.141Z,27.00
2023-04-22T21:12:12.585Z,28.53
2023-04-22T21:14:43.570Z,24.63
2023-04-22T21:17:19.248Z,27.43
2023-04-22T21:19:49.753Z,24.77
2023-04-22T21:22:20.564Z,27.70
2023-04-22T21:24:51.688Z,32.27
2023-04-22T21:27:20.509Z,29.67
2023-04-22T21:29:49.496Z,28.80
2023-04-22T21:32:19.982Z,34.33
2023-04-22T21:34:47.864Z,29.13
2023-04-22T21:37:18.979Z,35.57
2023-04-22T21:39:46.838Z,32.80
2023-04-22T21:42:15.979Z,35.60
2023-04-22T21:44:49.522Z,31.37
2023-04-22T21:47:17.517Z,33.90
2023-04-22T21:49:45.863Z,35.73
2023-04-22T21:52:13.837Z,30.67
2023-04-22T21:54:41.858Z,31.37
2023-04-22T21:57:10.128Z,30.63
2023-04-22T21:59:39.364Z,27.77
2023-04-22T22:02:07.238Z,28.53
2023-04-22T22:04:35.467Z,32.87
2023-04-22T22:07:03.584Z,30.50
2023-04-22T22:09:31.674Z,34.27
2023-04-22T22:11:59.480Z,34.63
2023-04-22T22:14:27.213Z,34.03
2023-04-22T22:16:56.556Z,35.20
2023-04-22T22:19:27.602Z,33.33
2023-04-22T22:21:55.723Z,31.37
2023-04-22T22:24:24.082Z,36.50
2023-04-22T22:26:51.983Z,33.97
2023-04-22T22:29:19.786Z,37.77
2023-04-22T22:31:47.869Z,32.73
2023-04-22T22:34:17.127Z,35.90
2023-04-22T22:36:45.140Z,37.27
2023-04-22T22:39:15.911Z,37.63
2023-04-22T22:41:44.207Z,34.47
2023-04-22T22:44:12.329Z,40.43
2023-04-22T22:46:41.261Z,37.63
2023-04-22T22:49:09.180Z,38.00
2023-04-22T22:51:38.414Z,38.23
2023-04-22T22:54:06.742Z,35.37
2023-04-22T22:56:34.739Z,39.60
2023-04-22T22:59:02.556Z,40.37
2023-04-22T23:01:30.586Z,40.93
2023-04-22T23:03:58.651Z,37.87
2023-04-22T23:06:27.182Z,36.30
2023-04-22T23:08:57.160Z,40.70
2023-04-22T23:11:25.371Z,40.47
2023-04-22T23:13:53.377Z,42.43
2023-04-22T23:16:21.444Z,36.60
2023-04-22T23:18:49.862Z,40.57
2023-04-22T23:21:18.105Z,37.17
2023-04-22T23:23:46.453Z,37.97
2023-04-22T23:26:16.457Z,44.00
2023-04-22T23:28:45.167Z,39.40
2023-04-22T23:31:18.344Z,42.90
2023-04-22T23:33:49.862Z,42.97
2023-04-22T23:36:19.003Z,42.20
2023-04-22T23:38:46.922Z,43.40
2023-04-22T23:41:16.072Z,40.33
2023-04-22T23:43:43.998Z,46.70
2023-04-22T23:46:12.943Z,44.50
2023-04-22T23:48:41.216Z,47.50
2023-04-22T23:51:09.151Z,47.23
2023-04-22T23:53:37.021Z,42.60
2023-04-22T23:56:05.529Z,38.67
2023-04-22T23:58:35.267Z,47.43
